createdAt,value
2018-02-19T00:00:50.299Z,0
2018-02-19T00:01:51.951Z,0
2018-02-19T00:02:53.593Z,0
2018-02-19T00:03:55.234Z,0
2018-02-19T00:04:56.885Z,0
2018-02-19T00:05:58.531Z,0
2018-02-19T00:07:00.190Z,0
2018-02-19T00:08:01.840Z,0
2018-02-19T00:09:03.484Z,0
2018-02-19T00:10:05.135Z,0
2018-02-19T00:11:06.790Z,0
2018-02-19T00:12:08.431Z,0
2018-02-19T00:13:10.072Z,0
2018-02-19T00:14:11.727Z,0
2018-02-19T00:15:13.368Z,0
2018-02-19T00:16:15.025Z,0
2018-02-19T00:17:16.675Z,0
2018-02-19T00:18:18.321Z,0
2018-02-19T00:19:19.969Z,0
2018-02-19T00:20:21.629Z,0
2018-02-19T00:21:23.276Z,0
2018-02-19T00:22:24.921Z,0
2018-02-19T00:23:26.563Z,0
2018-02-19T00:24:28.217Z,0
2018-02-19T00:25:29.948Z,0
2018-02-19T00:26:31.589Z,0
2018-02-19T00:27:33.256Z,0
2018-02-19T00:28:34.876Z,0
2018-02-19T00:29:36.526Z,0
2018-02-19T00:30:38.166Z,0
2018-02-19T00:31:39.820Z,0
2018-02-19T00:32:41.512Z,0
2018-02-19T00:33:43.110Z,0
2018-02-19T00:34:44.758Z,0
2018-02-19T00:35:46.451Z,0
2018-02-19T00:36:48.046Z,0
2018-02-19T00:37:49.698Z,0
2018-02-19T00:38:51.348Z,0
2018-02-19T00:39:52.988Z,0
2018-02-19T00:40:54.655Z,0
2018-02-19T00:41:56.307Z,0
2018-02-19T00:42:57.951Z,0
2018-02-19T00:43:59.603Z,0
2018-02-19T00:45:01.259Z,0
2018-02-19T00:46:02.904Z,0
2018-02-19T00:47:04.556Z,0
2018-02-19T00:48:06.216Z,0
2018-02-19T00:49:07.859Z,0
2018-02-19T00:50:09.496Z,0
2018-02-19T00:51:11.143Z,0
2018-02-19T00:52:12.786Z,0
2018-02-19T00:53:14.436Z,0
2018-02-19T00:54:16.075Z,0
2018-02-19T00:55:17.720Z,0
2018-02-19T00:56:19.365Z,0
2018-02-19T00:57:21.000Z,0
2018-02-19T00:58:22.649Z,0
2018-02-19T00:59:24.299Z,0
2018-02-19T01:00:25.946Z,0
2018-02-19T01:01:27.589Z,0
2018-02-19T01:02:29.241Z,0
2018-02-19T01:03:30.883Z,0
2018-02-19T01:04:32.527Z,0
2018-02-19T01:05:34.187Z,0
2018-02-19T01:06:35.842Z,0
2018-02-19T01:07:37.496Z,0
2018-02-19T01:08:39.139Z,0
2018-02-19T01:09:40.788Z,0
2018-02-19T01:10:42.437Z,0
2018-02-19T01:11:44.079Z,0
2018-02-19T01:12:45.724Z,0
2018-02-19T01:13:47.376Z,0
2018-02-19T01:14:49.028Z,0
2018-02-19T01:15:50.679Z,0
2018-02-19T01:16:52.324Z,0
2018-02-19T01:17:53.979Z,0
2018-02-19T01:18:55.619Z,0
2018-02-19T01:19:57.265Z,0
2018-02-19T01:20:58.915Z,0
2018-02-19T01:22:00.559Z,0
2018-02-19T01:23:02.198Z,0
2018-02-19T01:24:03.845Z,0
2018-02-19T01:25:05.484Z,0
2018-02-19T01:26:07.130Z,0
2018-02-19T01:27:08.794Z,0
2018-02-19T01:28:10.435Z,0
2018-02-19T01:29:12.081Z,0
2018-02-19T01:30:13.743Z,0
2018-02-19T01:31:15.382Z,0
2018-02-19T01:32:17.031Z,0
2018-02-19T01:33:18.679Z,0
2018-02-19T01:34:20.327Z,0
2018-02-19T01:35:21.981Z,0
2018-02-19T01:36:23.646Z,0
2018-02-19T01:37:25.323Z,0
2018-02-19T01:38:26.989Z,0
2018-02-19T01:39:28.636Z,0
2018-02-19T01:40:30.290Z,0
2018-02-19T01:41:31.938Z,0
2018-02-19T01:42:33.590Z,0
2018-02-19T01:43:35.243Z,0
2018-02-19T01:44:36.885Z,0
2018-02-19T01:45:38.527Z,0
2018-02-19T01:46:40.172Z,0
2018-02-19T01:47:41.828Z,0
2018-02-19T01:48:43.474Z,0
2018-02-19T01:49:45.120Z,0
2018-02-19T01:50:46.764Z,0
2018-02-19T01:51:48.412Z,0
2018-02-19T01:52:50.056Z,0
2018-02-19T01:53:51.703Z,0
2018-02-19T01:54:53.360Z,0
2018-02-19T01:55:55.006Z,0
2018-02-19T01:56:56.678Z,0
2018-02-19T01:57:58.324Z,0
2018-02-19T01:58:59.977Z,0
2018-02-19T02:00:01.633Z,0
2018-02-19T02:01:03.288Z,0
2018-02-19T02:02:04.931Z,0
2018-02-19T02:03:06.611Z,0
2018-02-19T02:04:08.274Z,0
2018-02-19T02:05:09.907Z,0
2018-02-19T02:06:11.556Z,0
2018-02-19T02:07:13.199Z,0
2018-02-19T02:09:24.501Z,0
2018-02-19T02:10:26.154Z,0
2018-02-19T02:11:27.808Z,0
2018-02-19T02:12:29.460Z,0
2018-02-19T02:13:31.122Z,0
2018-02-19T02:14:32.769Z,0
2018-02-19T02:15:34.422Z,0
2018-02-19T02:16:36.077Z,0
2018-02-19T02:17:37.719Z,0
2018-02-19T02:18:39.367Z,0
2018-02-19T02:19:41.115Z,0
2018-02-19T02:20:42.763Z,0
2018-02-19T02:21:44.415Z,0
2018-02-19T02:22:46.071Z,0
2018-02-19T02:23:47.727Z,0
2018-02-19T02:24:49.369Z,0
2018-02-19T02:25:51.015Z,0
2018-02-19T02:26:52.659Z,0
2018-02-19T02:27:54.301Z,0
2018-02-19T02:28:55.943Z,0
2018-02-19T02:29:57.604Z,0
2018-02-19T02:30:59.258Z,0
2018-02-19T02:32:00.904Z,0
2018-02-19T02:33:02.616Z,0
2018-02-19T02:34:04.269Z,0
2018-02-19T02:35:05.969Z,0
2018-02-19T02:36:07.561Z,0
2018-02-19T02:37:09.205Z,0
2018-02-19T02:38:10.855Z,0
2018-02-19T02:39:12.505Z,0
2018-02-19T02:40:14.151Z,0
2018-02-19T02:41:15.807Z,0
2018-02-19T02:42:17.514Z,0
2018-02-19T02:43:19.162Z,0
2018-02-19T02:44:20.816Z,0
2018-02-19T02:45:22.469Z,0
2018-02-19T02:46:24.121Z,0
2018-02-19T02:47:25.771Z,0
2018-02-19T02:48:27.416Z,0
2018-02-19T02:49:29.228Z,0
2018-02-19T02:50:30.877Z,0
2018-02-19T02:51:32.527Z,0
2018-02-19T02:52:34.181Z,0
2018-02-19T02:53:35.831Z,0
2018-02-19T02:54:37.470Z,0
2018-02-19T03:01:12.777Z,0
2018-02-19T03:02:14.423Z,0
2018-02-19T03:04:06.343Z,0
2018-02-19T03:05:07.991Z,0
2018-02-19T03:06:09.660Z,0
2018-02-19T03:07:11.306Z,0
2018-02-19T03:08:12.958Z,0
2018-02-19T03:09:14.597Z,0
2018-02-19T03:10:16.246Z,0
2018-02-19T03:11:17.902Z,0
2018-02-19T03:12:19.562Z,0
2018-02-19T03:13:21.200Z,0
2018-02-19T03:14:22.853Z,0
2018-02-19T03:15:24.495Z,0
2018-02-19T03:16:26.191Z,0
2018-02-19T03:17:27.839Z,0
2018-02-19T03:18:29.492Z,0
2018-02-19T03:19:31.134Z,0
2018-02-19T03:20:32.781Z,0
2018-02-19T03:21:34.425Z,0
2018-02-19T03:22:36.078Z,0
2018-02-19T03:23:37.732Z,0
2018-02-19T03:24:39.377Z,0
2018-02-19T03:25:41.017Z,0
2018-02-19T03:26:42.674Z,0
2018-02-19T03:27:44.325Z,0
2018-02-19T03:28:45.970Z,0
2018-02-19T03:29:47.644Z,0
2018-02-19T03:30:49.278Z,0
2018-02-19T03:31:50.930Z,0
2018-02-19T03:32:52.581Z,0
2018-02-19T03:33:54.223Z,0
2018-02-19T03:34:55.903Z,0
2018-02-19T03:35:57.553Z,0
2018-02-19T03:36:59.226Z,0
2018-02-19T03:38:00.870Z,0
2018-02-19T03:39:02.520Z,0
2018-02-19T03:40:04.168Z,0
2018-02-19T03:41:05.822Z,0
2018-02-19T03:42:07.467Z,0
2018-02-19T03:43:09.116Z,0
2018-02-19T03:44:10.765Z,0
2018-02-19T03:45:12.416Z,0
2018-02-19T03:46:14.072Z,0
2018-02-19T03:47:15.720Z,0
2018-02-19T03:48:17.367Z,0
2018-02-19T03:49:19.014Z,0
2018-02-19T03:50:20.661Z,0
2018-02-19T03:51:22.308Z,0
2018-02-19T03:52:23.959Z,0
2018-02-19T03:53:25.615Z,0
2018-02-19T03:54:27.261Z,0
2018-02-19T03:55:28.915Z,0
2018-02-19T03:56:30.566Z,0
2018-02-19T03:57:32.223Z,0
2018-02-19T03:58:33.882Z,0
2018-02-19T03:59:35.524Z,0
2018-02-19T04:00:37.164Z,0
2018-02-19T04:01:38.825Z,0
2018-02-19T04:02:40.472Z,0
2018-02-19T04:03:42.132Z,0
2018-02-19T04:04:43.779Z,0
2018-02-19T04:05:45.430Z,0
2018-02-19T04:06:47.077Z,0
2018-02-19T04:07:48.731Z,0
2018-02-19T04:08:50.371Z,0
2018-02-19T04:09:52.023Z,0
2018-02-19T04:10:53.664Z,0
2018-02-19T04:11:55.318Z,0
2018-02-19T04:12:56.969Z,0
2018-02-19T04:13:58.623Z,0
2018-02-19T04:15:00.280Z,0
2018-02-19T04:16:01.927Z,0
2018-02-19T04:17:03.572Z,0
2018-02-19T04:18:05.229Z,0
2018-02-19T04:19:06.874Z,0
2018-02-19T04:20:08.526Z,0
2018-02-19T04:21:10.168Z,0
2018-02-19T04:22:11.811Z,0
2018-02-19T04:23:13.471Z,0
2018-02-19T04:24:15.116Z,0
2018-02-19T04:25:16.770Z,0
2018-02-19T04:26:18.420Z,0
2018-02-19T04:27:20.073Z,0
2018-02-19T04:28:21.721Z,0
2018-02-19T04:29:23.487Z,0
2018-02-19T04:30:25.137Z,0
2018-02-19T04:31:26.782Z,0
2018-02-19T04:32:28.438Z,0
2018-02-19T04:33:30.086Z,0
2018-02-19T04:34:31.725Z,0
2018-02-19T04:35:33.366Z,0
2018-02-19T04:36:35.017Z,0
2018-02-19T04:37:36.663Z,0
2018-02-19T04:38:38.311Z,0
2018-02-19T04:39:39.957Z,0
2018-02-19T04:40:41.601Z,0
2018-02-19T04:41:43.262Z,0
2018-02-19T04:42:44.906Z,0
2018-02-19T04:43:46.552Z,0
2018-02-19T04:44:48.204Z,0
2018-02-19T04:45:49.853Z,0
2018-02-19T04:46:51.491Z,0
2018-02-19T04:47:53.135Z,0
2018-02-19T04:48:54.779Z,0
2018-02-19T04:49:56.425Z,0
2018-02-19T04:50:58.082Z,0
2018-02-19T04:51:59.724Z,0
2018-02-19T04:53:01.372Z,0
2018-02-19T04:54:03.016Z,0
2018-02-19T04:55:04.744Z,0
2018-02-19T04:56:06.387Z,0
2018-02-19T04:57:08.039Z,0
2018-02-19T04:58:09.687Z,0
2018-02-19T04:59:11.344Z,0
2018-02-19T05:00:12.992Z,0
2018-02-19T05:01:14.643Z,0
2018-02-19T05:02:16.298Z,0
2018-02-19T05:03:17.947Z,0
2018-02-19T05:04:19.596Z,0
2018-02-19T05:05:21.240Z,0
2018-02-19T05:06:22.886Z,0
2018-02-19T05:07:24.709Z,0
2018-02-19T05:08:26.372Z,0
2018-02-19T05:09:28.009Z,0
2018-02-19T05:10:29.668Z,0
2018-02-19T05:11:31.368Z,0
2018-02-19T05:12:33.014Z,0
2018-02-19T05:13:34.668Z,0
2018-02-19T05:14:36.325Z,0
2018-02-19T05:15:37.963Z,0
2018-02-19T05:16:39.625Z,0
2018-02-19T05:17:41.287Z,0
2018-02-19T05:18:42.977Z,0
2018-02-19T05:19:44.623Z,0
2018-02-19T05:20:46.281Z,0
2018-02-19T05:21:47.927Z,0
2018-02-19T05:22:49.579Z,0
2018-02-19T05:23:51.224Z,0
2018-02-19T05:24:52.872Z,0
2018-02-19T05:25:54.519Z,0
2018-02-19T05:26:56.288Z,0
2018-02-19T05:27:58.171Z,0
2018-02-19T05:28:59.859Z,0
2018-02-19T05:30:01.505Z,0
2018-02-19T05:31:03.154Z,0
2018-02-19T05:32:04.811Z,0
2018-02-19T05:33:06.895Z,0
2018-02-19T05:34:08.841Z,0
2018-02-19T05:35:10.487Z,0
2018-02-19T05:36:12.130Z,0
2018-02-19T05:37:14.050Z,0
2018-02-19T05:38:16.142Z,0
2018-02-19T05:39:17.866Z,0
2018-02-19T05:40:19.518Z,0
2018-02-19T05:41:21.164Z,0
2018-02-19T05:42:22.813Z,0
2018-02-19T05:43:24.465Z,0
2018-02-19T05:44:30.840Z,0
2018-02-19T05:45:32.522Z,0
2018-02-19T05:46:34.182Z,0
2018-02-19T05:47:35.898Z,0
2018-02-19T05:48:37.479Z,0
2018-02-19T05:49:39.127Z,0
2018-02-19T05:50:40.785Z,0
2018-02-19T05:51:42.432Z,0
2018-02-19T05:52:44.080Z,0
2018-02-19T05:53:45.734Z,0
2018-02-19T05:54:47.385Z,0
2018-02-19T05:55:49.038Z,0
2018-02-19T05:56:50.694Z,0
2018-02-19T05:57:52.337Z,0
2018-02-19T05:58:53.994Z,0
2018-02-19T05:59:55.645Z,4
2018-02-19T06:00:59.125Z,4
2018-02-19T06:02:00.764Z,0
2018-02-19T06:03:02.425Z,4
2018-02-19T06:04:04.100Z,4
2018-02-19T06:05:05.744Z,4
2018-02-19T06:06:07.383Z,8
2018-02-19T06:07:09.078Z,8
2018-02-19T06:08:10.735Z,12
2018-02-19T06:09:12.391Z,12
2018-02-19T06:10:14.039Z,16
2018-02-19T06:11:15.695Z,24
2018-02-19T06:12:17.342Z,24
2018-02-19T06:13:18.997Z,28
2018-02-19T06:14:20.655Z,36
2018-02-19T06:15:22.305Z,40
2018-02-19T06:16:23.968Z,48
2018-02-19T06:17:25.609Z,52
2018-02-19T06:18:27.262Z,60
2018-02-19T06:19:28.913Z,72
2018-02-19T06:20:30.930Z,80
2018-02-19T06:21:32.590Z,92
2018-02-19T06:22:34.252Z,104
2018-02-19T06:23:35.899Z,116
2018-02-19T06:24:37.545Z,132
2018-02-19T06:25:39.196Z,152
2018-02-19T06:26:40.843Z,176
2018-02-19T06:27:42.511Z,192
2018-02-19T06:28:44.156Z,216
2018-02-19T06:29:45.826Z,236
2018-02-19T06:30:47.471Z,260
2018-02-19T06:31:49.125Z,284
2018-02-19T06:32:50.782Z,308
2018-02-19T06:33:52.426Z,328
2018-02-19T06:34:54.083Z,352
2018-02-19T06:35:55.770Z,376
2018-02-19T06:36:57.372Z,400
2018-02-19T06:37:59.021Z,420
2018-02-19T06:39:00.680Z,460
2018-02-19T06:40:02.347Z,500
2018-02-19T06:41:03.987Z,540
2018-02-19T06:42:05.646Z,588
2018-02-19T06:43:07.292Z,636
2018-02-19T06:44:08.997Z,692
2018-02-19T06:45:10.638Z,752
2018-02-19T06:46:12.297Z,812
2018-02-19T06:47:13.960Z,876
2018-02-19T06:48:15.617Z,932
2018-02-19T06:49:17.273Z,996
2018-02-19T06:50:18.917Z,1072
2018-02-19T06:51:20.557Z,1144
2018-02-19T06:52:22.226Z,1220
2018-02-19T06:53:23.897Z,1344
2018-02-19T06:54:25.593Z,1480
2018-02-19T06:55:27.170Z,1592
2018-02-19T07:02:03.261Z,2024
2018-02-19T07:03:04.911Z,2132
2018-02-19T07:04:06.570Z,2244
2018-02-19T07:05:08.215Z,2380
2018-02-19T07:06:09.873Z,2508
2018-02-19T07:07:11.738Z,2624
2018-02-19T07:08:13.393Z,2740
2018-02-19T07:09:15.044Z,2828
2018-02-19T07:10:16.788Z,2892
2018-02-19T07:11:18.433Z,2952
2018-02-19T07:12:20.111Z,2972
2018-02-19T07:13:21.770Z,2968
2018-02-19T07:14:23.445Z,3016
2018-02-19T07:15:25.096Z,3120
2018-02-19T07:16:26.746Z,3228
2018-02-19T07:17:28.398Z,3368
2018-02-19T07:18:42.431Z,3464
2018-02-19T07:19:44.097Z,3580
2018-02-19T07:20:45.756Z,3676
2018-02-19T07:21:47.408Z,3772
2018-02-19T07:22:49.068Z,3840
2018-02-19T07:23:50.711Z,3892
2018-02-19T07:24:52.365Z,3944
2018-02-19T07:25:54.010Z,4000
2018-02-19T07:26:55.683Z,4048
2018-02-19T07:27:57.326Z,4116
2018-02-19T07:28:58.978Z,4228
2018-02-19T07:30:00.645Z,4400
2018-02-19T07:31:02.364Z,4616
2018-02-19T07:32:04.020Z,4840
2018-02-19T07:33:05.676Z,5060
2018-02-19T07:34:07.333Z,5196
2018-02-19T07:35:08.987Z,5372
2018-02-19T07:36:10.652Z,5588
2018-02-19T07:37:12.308Z,5772
2018-02-19T07:38:13.970Z,5864
2018-02-19T07:39:15.664Z,5900
2018-02-19T07:40:17.327Z,5912
2018-02-19T07:41:18.983Z,5932
2018-02-19T07:42:20.646Z,6020
2018-02-19T07:43:22.300Z,6052
2018-02-19T07:44:23.961Z,6164
2018-02-19T07:45:25.617Z,6276
2018-02-19T07:46:27.280Z,6444
2018-02-19T07:47:28.931Z,6588
2018-02-19T07:48:30.593Z,6824
2018-02-19T07:49:32.261Z,7040
2018-02-19T07:50:33.908Z,7356
2018-02-19T07:51:35.571Z,7880
2018-02-19T07:52:37.225Z,8312
2018-02-19T07:53:38.876Z,8636
2018-02-19T07:54:40.531Z,9000
2018-02-19T07:55:42.189Z,9356
2018-02-19T07:56:43.835Z,9616
2018-02-19T07:57:45.503Z,9804
2018-02-19T07:58:47.139Z,9976
2018-02-19T07:59:48.799Z,10168
2018-02-19T08:00:50.462Z,10344
2018-02-19T08:01:52.122Z,10464
2018-02-19T08:02:53.771Z,10616
2018-02-19T08:03:55.432Z,10652
2018-02-19T08:04:57.079Z,10404
2018-02-19T08:05:58.768Z,10140
2018-02-19T08:07:00.434Z,10416
2018-02-19T08:08:02.091Z,11140
2018-02-19T08:09:03.751Z,11468
2018-02-19T08:10:05.418Z,12112
2018-02-19T08:11:07.071Z,12436
2018-02-19T08:12:08.740Z,13228
2018-02-19T08:13:10.401Z,12740
2018-02-19T08:14:12.067Z,12892
2018-02-19T08:15:13.722Z,13396
2018-02-19T08:16:15.384Z,12640
2018-02-19T08:17:17.085Z,11764
2018-02-19T08:18:18.842Z,11592
2018-02-19T08:19:20.464Z,11828
2018-02-19T08:20:22.129Z,11956
2018-02-19T08:21:23.915Z,12108
2018-02-19T08:22:25.564Z,12440
2018-02-19T08:23:27.229Z,12712
2018-02-19T08:24:28.887Z,13424
2018-02-19T08:25:30.544Z,14272
2018-02-19T08:26:32.284Z,14176
2018-02-19T08:27:33.951Z,14248
2018-02-19T08:28:35.613Z,14588
2018-02-19T08:29:37.276Z,14996
2018-02-19T08:30:38.954Z,15324
2018-02-19T08:31:40.611Z,16596
2018-02-19T08:32:42.272Z,19360
2018-02-19T08:33:43.982Z,17016
2018-02-19T08:34:45.643Z,14876
2018-02-19T08:35:47.306Z,14296
2018-02-19T08:36:49.067Z,13912
2018-02-19T08:37:50.719Z,13992
2018-02-19T08:38:52.387Z,13836
2018-02-19T08:39:54.037Z,14108
2018-02-19T08:40:55.707Z,15720
2018-02-19T08:41:57.376Z,18816
2018-02-19T08:42:59.049Z,18592
2018-02-19T08:44:00.698Z,18880
2018-02-19T08:45:02.370Z,22848
2018-02-19T08:46:04.028Z,20672
2018-02-19T08:47:05.687Z,17792
2018-02-19T08:48:07.356Z,16492
2018-02-19T08:49:09.020Z,16340
2018-02-19T08:50:10.679Z,16856
2018-02-19T08:51:12.333Z,17952
2018-02-19T08:52:14.005Z,19360
2018-02-19T08:53:15.683Z,22080
2018-02-19T08:54:17.358Z,24224
2018-02-19T08:55:19.041Z,27872
2018-02-19T08:56:20.694Z,28224
2018-02-19T08:57:22.357Z,27200
2018-02-19T08:58:24.024Z,26368
2018-02-19T08:59:25.673Z,23904
2018-02-19T09:00:27.336Z,23168
2018-02-19T09:01:28.995Z,23392
2018-02-19T09:02:30.658Z,23456
2018-02-19T09:03:32.320Z,23584
2018-02-19T09:04:33.977Z,23008
2018-02-19T09:05:35.636Z,21216
2018-02-19T09:06:37.316Z,20448
2018-02-19T09:07:39.002Z,20544
2018-02-19T09:08:40.657Z,22080
2018-02-19T09:09:42.315Z,22176
2018-02-19T09:10:43.981Z,21216
2018-02-19T09:11:45.640Z,19008
2018-02-19T09:12:47.299Z,20512
2018-02-19T09:13:48.971Z,15932
2018-02-19T09:14:50.618Z,22400
2018-02-19T09:15:52.280Z,19360
2018-02-19T09:16:53.942Z,26112
2018-02-19T09:17:55.607Z,25536
2018-02-19T09:18:57.272Z,29568
2018-02-19T09:19:58.936Z,25440
2018-02-19T09:21:00.593Z,37280
2018-02-19T09:22:02.251Z,44160
2018-02-19T09:23:03.906Z,42144
2018-02-19T09:24:05.639Z,37440
2018-02-19T09:25:07.302Z,29888
2018-02-19T09:26:08.968Z,46880
2018-02-19T09:27:10.630Z,43808
2018-02-19T09:28:12.290Z,46400
2018-02-19T09:29:13.953Z,46912
2018-02-19T09:30:15.652Z,42848
2018-02-19T09:31:17.318Z,38720
2018-02-19T09:32:19.030Z,37472
2018-02-19T09:33:20.707Z,39264
2018-02-19T09:34:22.355Z,35200
2018-02-19T09:35:24.134Z,40416
2018-02-19T09:36:25.752Z,47744
2018-02-19T09:37:27.428Z,47776
2018-02-19T09:38:29.097Z,46784
2018-02-19T09:39:30.765Z,44000
2018-02-19T09:40:32.436Z,44352
2018-02-19T09:41:34.102Z,46592
2018-02-19T09:42:35.781Z,45824
2018-02-19T09:43:37.446Z,39424
2018-02-19T09:44:39.120Z,41824
2018-02-19T09:45:40.785Z,28384
2018-02-19T09:46:42.431Z,30560
2018-02-19T09:47:44.109Z,36320
2018-02-19T09:48:45.769Z,31680
2018-02-19T09:49:47.447Z,36992
2018-02-19T09:50:49.112Z,35072
2018-02-19T09:51:50.790Z,39936
2018-02-19T09:52:52.488Z,42048
2018-02-19T09:53:54.156Z,33376
2018-02-19T09:54:55.852Z,29184
2018-02-19T09:55:57.500Z,28096
2018-02-19T09:56:59.182Z,29792
2018-02-19T09:58:00.846Z,38528
2018-02-19T09:59:02.513Z,32832
2018-02-19T10:00:04.191Z,45600
2018-02-19T10:01:05.845Z,35808
2018-02-19T10:02:07.502Z,34208
2018-02-19T10:03:09.170Z,27200
2018-02-19T10:04:10.890Z,27040
2018-02-19T10:05:12.550Z,42240
2018-02-19T10:06:14.205Z,48704
2018-02-19T10:07:15.876Z,47424
2018-02-19T10:08:17.574Z,48576
2018-02-19T10:09:19.203Z,48608
2018-02-19T10:10:20.915Z,33824
2018-02-19T10:11:22.533Z,38432
2018-02-19T10:12:24.252Z,26208
2018-02-19T10:13:25.925Z,42528
2018-02-19T10:14:27.581Z,45760
2018-02-19T10:15:29.283Z,42816
2018-02-19T10:16:30.914Z,66528
2018-02-19T10:17:32.607Z,61408
2018-02-19T10:18:34.303Z,68800
2018-02-19T10:19:35.944Z,67808
2018-02-19T10:20:37.615Z,66176
2018-02-19T10:21:39.287Z,61248
2018-02-19T10:22:40.951Z,69792
2018-02-19T10:23:42.648Z,74816
2018-02-19T10:24:44.306Z,75712
2018-02-19T10:25:46.027Z,54688
2018-02-19T10:26:47.650Z,36672
2018-02-19T10:27:49.325Z,38016
2018-02-19T10:28:50.995Z,69056
2018-02-19T10:29:52.670Z,70176
2018-02-19T10:30:54.338Z,66368
2018-02-19T10:31:55.998Z,32896
2018-02-19T10:32:57.666Z,55328
2018-02-19T10:33:59.329Z,60064
2018-02-19T10:35:00.997Z,27680
2018-02-19T10:36:02.956Z,25024
2018-02-19T10:37:04.643Z,37344
2018-02-19T10:38:06.305Z,48096
2018-02-19T10:39:07.974Z,27456
2018-02-19T10:40:09.634Z,46784
2018-02-19T10:41:11.297Z,32064
2018-02-19T10:42:12.978Z,27008
2018-02-19T10:43:14.815Z,24768
2018-02-19T10:44:16.488Z,34688
2018-02-19T10:45:18.161Z,37088
2018-02-19T10:46:19.831Z,50880
2018-02-19T10:47:22.324Z,50048
2018-02-19T10:48:24.000Z,54144
2018-02-19T10:49:25.665Z,36608
2018-02-19T10:50:27.335Z,43552
2018-02-19T10:51:29.003Z,48832
2018-02-19T10:52:30.687Z,44512
2018-02-19T10:53:32.342Z,38304
2018-02-19T10:54:34.005Z,39936
2018-02-19T10:55:35.681Z,38208
2018-02-19T11:01:34.118Z,51392
2018-02-19T11:02:35.779Z,61856
2018-02-19T11:03:37.434Z,59744
2018-02-19T11:04:39.094Z,52672
2018-02-19T11:05:40.758Z,37408
2018-02-19T11:06:42.422Z,43936
2018-02-19T11:07:44.084Z,48992
2018-02-19T11:08:45.754Z,53408
2018-02-19T11:09:47.410Z,57344
2018-02-19T11:10:49.079Z,57984
2018-02-19T11:11:50.768Z,56032
2018-02-19T11:12:52.427Z,37056
2018-02-19T11:13:54.091Z,58720
2018-02-19T11:14:55.762Z,55200
2018-02-19T11:15:57.423Z,31584
2018-02-19T11:16:59.089Z,28288
2018-02-19T11:18:00.752Z,27680
2018-02-19T11:19:02.422Z,27424
2018-02-19T11:20:04.098Z,38592
2018-02-19T11:21:05.819Z,34240
2018-02-19T11:22:07.492Z,43296
2018-02-19T11:23:09.155Z,55200
2018-02-19T11:24:10.834Z,53408
2018-02-19T11:25:12.489Z,41664
2018-02-19T11:26:14.154Z,50368
2018-02-19T11:27:15.829Z,49216
2018-02-19T11:28:17.493Z,48768
2018-02-19T11:29:19.156Z,47232
2018-02-19T11:30:20.836Z,38336
2018-02-19T11:31:22.501Z,32032
2018-02-19T11:32:24.165Z,45632
2018-02-19T11:33:25.887Z,41856
2018-02-19T11:34:27.557Z,29184
2018-02-19T11:35:29.234Z,31616
2018-02-19T11:36:30.899Z,45408
2018-02-19T11:37:32.565Z,47552
2018-02-19T11:38:34.219Z,46112
2018-02-19T11:39:35.907Z,45920
2018-02-19T11:40:37.569Z,44864
2018-02-19T11:41:39.234Z,43552
2018-02-19T11:42:40.898Z,42784
2018-02-19T11:43:42.568Z,42272
2018-02-19T11:44:44.243Z,42464
2018-02-19T11:45:45.906Z,41856
2018-02-19T11:46:47.577Z,40608
2018-02-19T11:47:49.232Z,40768
2018-02-19T11:48:50.893Z,38048
2018-02-19T11:49:52.563Z,42048
2018-02-19T11:50:54.274Z,40480
2018-02-19T11:51:55.950Z,42368
2018-02-19T11:52:57.616Z,42656
2018-02-19T11:53:59.298Z,41088
2018-02-19T11:55:00.965Z,43264
2018-02-19T11:56:02.629Z,44352
2018-02-19T11:57:04.422Z,44896
2018-02-19T11:58:06.085Z,48864
2018-02-19T11:59:07.764Z,51328
2018-02-19T12:00:09.417Z,55456
2018-02-19T12:01:11.081Z,58624
2018-02-19T12:02:12.776Z,66816
2018-02-19T12:03:14.435Z,75840
2018-02-19T12:04:16.147Z,80000
2018-02-19T12:05:17.817Z,81888
2018-02-19T12:06:19.478Z,73728
2018-02-19T12:07:21.138Z,72288
2018-02-19T12:08:22.805Z,72992
2018-02-19T12:09:24.473Z,64288
2018-02-19T12:10:26.135Z,42880
2018-02-19T12:11:27.833Z,49216
2018-02-19T12:12:29.497Z,36704
2018-02-19T12:13:31.175Z,31136
2018-02-19T12:14:32.839Z,29856
2018-02-19T12:15:34.512Z,32864
2018-02-19T12:16:36.195Z,31296
2018-02-19T12:17:37.857Z,30944
2018-02-19T12:18:39.526Z,31392
2018-02-19T12:19:41.188Z,30176
2018-02-19T12:20:42.853Z,30272
2018-02-19T12:21:44.520Z,32384
2018-02-19T12:22:46.191Z,36704
2018-02-19T12:23:47.855Z,39616
2018-02-19T12:24:49.521Z,42688
2018-02-19T12:25:51.200Z,41568
2018-02-19T12:26:52.862Z,34784
2018-02-19T12:27:54.529Z,29760
2018-02-19T12:28:56.208Z,36928
2018-02-19T12:29:57.862Z,32288
2018-02-19T12:30:59.533Z,23808
2018-02-19T12:32:01.194Z,23776
2018-02-19T12:33:02.866Z,24896
2018-02-19T12:34:04.530Z,31360
2018-02-19T12:35:06.191Z,26944
2018-02-19T12:36:07.847Z,26400
2018-02-19T12:37:09.518Z,27488
2018-02-19T12:38:11.170Z,27360
2018-02-19T12:39:12.836Z,28544
2018-02-19T12:40:14.538Z,29088
2018-02-19T12:41:16.270Z,30368
2018-02-19T12:42:17.871Z,31552
2018-02-19T12:43:19.536Z,35424
2018-02-19T12:44:21.991Z,36192
2018-02-19T12:45:23.657Z,33408
2018-02-19T12:46:25.321Z,33088
2018-02-19T12:47:26.989Z,33088
2018-02-19T12:48:28.657Z,29280
2018-02-19T12:49:30.336Z,28864
2018-02-19T12:50:31.998Z,26912
2018-02-19T12:51:33.656Z,26112
2018-02-19T12:52:35.335Z,25792
2018-02-19T12:53:37.024Z,25824
2018-02-19T12:54:38.786Z,26240
2018-02-19T12:55:40.432Z,27072
2018-02-19T12:56:42.111Z,28160
2018-02-19T12:57:43.815Z,28704
2018-02-19T12:58:45.490Z,28832
2018-02-19T12:59:47.157Z,28992
2018-02-19T13:00:48.826Z,29216
2018-02-19T13:01:50.505Z,28928
2018-02-19T13:02:52.158Z,28544
2018-02-19T13:03:53.815Z,28224
2018-02-19T13:04:55.477Z,26848
2018-02-19T13:05:57.144Z,25856
2018-02-19T13:06:58.797Z,25216
2018-02-19T13:08:00.466Z,24672
2018-02-19T13:09:02.129Z,23840
2018-02-19T13:10:03.784Z,22944
2018-02-19T13:11:05.450Z,22208
2018-02-19T13:12:07.116Z,22304
2018-02-19T13:13:08.773Z,23040
2018-02-19T13:14:10.424Z,23808
2018-02-19T13:15:12.132Z,24416
2018-02-19T13:16:13.795Z,24640
2018-02-19T13:17:15.460Z,24992
2018-02-19T13:18:17.133Z,25216
2018-02-19T13:19:18.791Z,24192
2018-02-19T13:20:20.446Z,22752
2018-02-19T13:21:22.120Z,21472
2018-02-19T13:22:23.764Z,20224
2018-02-19T13:23:25.422Z,18944
2018-02-19T13:24:27.083Z,17364
2018-02-19T13:25:28.753Z,16020
2018-02-19T13:26:30.429Z,15028
2018-02-19T13:27:32.091Z,14524
2018-02-19T13:28:33.755Z,14132
2018-02-19T13:29:35.412Z,13968
2018-02-19T13:30:37.082Z,14124
2018-02-19T13:31:38.751Z,14508
2018-02-19T13:32:40.421Z,15220
2018-02-19T13:33:42.096Z,15748
2018-02-19T13:34:46.173Z,16144
2018-02-19T13:35:48.168Z,16744
2018-02-19T15:01:05.959Z,13976
2018-02-19T15:02:07.614Z,13860
2018-02-19T15:03:09.396Z,13732
2018-02-19T15:04:11.056Z,13512
2018-02-19T15:05:12.723Z,13312
2018-02-19T15:06:14.388Z,13028
2018-02-19T15:07:16.052Z,12756
2018-02-19T15:08:17.712Z,12444
2018-02-19T15:09:19.464Z,12156
2018-02-19T15:10:21.128Z,11900
2018-02-19T15:11:22.789Z,11624
2018-02-19T15:12:24.463Z,11356
2018-02-19T15:13:26.112Z,11088
2018-02-19T15:14:27.795Z,10900
2018-02-19T15:15:29.474Z,10768
2018-02-19T15:16:31.142Z,10612
2018-02-19T15:17:32.796Z,10416
2018-02-19T15:18:34.453Z,10196
2018-02-19T15:19:36.107Z,9924
2018-02-19T15:20:37.802Z,9616
2018-02-19T15:21:39.475Z,9260
2018-02-19T15:22:41.171Z,8868
2018-02-19T15:23:42.826Z,8468
2018-02-19T15:24:44.483Z,8192
2018-02-19T15:25:46.137Z,7992
2018-02-19T15:26:47.818Z,7888
2018-02-19T15:27:49.479Z,7840
2018-02-19T15:28:51.195Z,7868
2018-02-19T15:29:52.865Z,7880
2018-02-19T15:30:54.530Z,7836
2018-02-19T15:31:56.205Z,7684
2018-02-19T15:32:57.866Z,7480
2018-02-19T15:33:59.533Z,7232
2018-02-19T15:35:01.191Z,6976
2018-02-19T15:36:02.861Z,6788
2018-02-19T15:37:04.542Z,6676
2018-02-19T15:38:06.214Z,6616
2018-02-19T15:39:07.882Z,6560
2018-02-19T15:40:09.543Z,6456
2018-02-19T15:41:11.206Z,6320
2018-02-19T15:42:12.948Z,6160
2018-02-19T15:43:14.614Z,5984
2018-02-19T15:44:16.278Z,5780
2018-02-19T15:45:17.931Z,5556
2018-02-19T15:46:19.584Z,5352
2018-02-19T15:47:21.236Z,5212
2018-02-19T15:48:22.903Z,5148
2018-02-19T15:49:24.608Z,5100